sensor_id;sensor_type;location;lat;lon;timestamp;P1;durP1;ratioP1;P2;durP2;ratioP2
12861;SDS011;6499;66.348;14.134;2023-05-29T00:00:38;0.73;;;0.47;;
12861;SDS011;6499;66.348;14.134;2023-05-29T00:03:05;2.10;;;0.50;;
12861;SDS011;6499;66.348;14.134;2023-05-29T00:05:32;1.23;;;0.40;;
12861;SDS011;6499;66.348;14.134;2023-05-29T00:08:00;1.70;;;0.60;;
12861;SDS011;6499;66.348;14.134;2023-05-29T00:10:26;1.20;;;0.40;;
12861;SDS011;6499;66.348;14.134;2023-05-29T00:12:53;1.10;;;0.40;;
12861;SDS011;6499;66.348;14.134;2023-05-29T00:15:21;0.80;;;0.50;;
12861;SDS011;6499;66.348;14.134;2023-05-29T00:17:47;0.70;;;0.57;;
12861;SDS011;6499;66.348;14.134;2023-05-29T00:20:14;1.13;;;0.40;;
12861;SDS011;6499;66.348;14.134;2023-05-29T00:22:41;1.43;;;0.60;;
12861;SDS011;6499;66.348;14.134;2023-05-29T00:25:09;1.50;;;0.60;;
12861;SDS011;6499;66.348;14.134;2023-05-29T00:27:36;4.17;;;1.10;;
12861;SDS011;6499;66.348;14.134;2023-05-29T00:30:03;4.03;;;0.80;;
12861;SDS011;6499;66.348;14.134;2023-05-29T00:32:30;4.50;;;1.10;;
12861;SDS011;6499;66.348;14.134;2023-05-29T00:34:56;1.90;;;0.73;;
12861;SDS011;6499;66.348;14.134;2023-05-29T00:37:23;4.87;;;1.67;;
12861;SDS011;6499;66.348;14.134;2023-05-29T00:39:49;3.80;;;1.10;;
12861;SDS011;6499;66.348;14.134;2023-05-29T00:42:17;6.97;;;2.30;;
12861;SDS011;6499;66.348;14.134;2023-05-29T00:44:44;5.77;;;1.70;;
12861;SDS011;6499;66.348;14.134;2023-05-29T00:47:11;8.93;;;2.20;;
12861;SDS011;6499;66.348;14.134;2023-05-29T00:49:39;9.63;;;1.90;;
12861;SDS011;6499;66.348;14.134;2023-05-29T00:52:05;9.57;;;2.03;;
12861;SDS011;6499;66.348;14.134;2023-05-29T00:54:33;8.30;;;2.07;;
12861;SDS011;6499;66.348;14.134;2023-05-29T00:57:00;5.17;;;1.80;;
12861;SDS011;6499;66.348;14.134;2023-05-29T00:59:30;8.87;;;2.00;;
12861;SDS011;6499;66.348;14.134;2023-05-29T01:01:58;7.87;;;2.23;;
12861;SDS011;6499;66.348;14.134;2023-05-29T01:04:25;7.17;;;2.10;;
12861;SDS011;6499;66.348;14.134;2023-05-29T01:06:52;7.87;;;2.37;;
12861;SDS011;6499;66.348;14.134;2023-05-29T01:09:19;13.30;;;2.73;;
12861;SDS011;6499;66.348;14.134;2023-05-29T01:11:48;8.37;;;2.30;;
12861;SDS011;6499;66.348;14.134;2023-05-29T01:14:17;7.57;;;2.10;;
12861;SDS011;6499;66.348;14.134;2023-05-29T01:16:48;13.13;;;2.83;;
12861;SDS011;6499;66.348;14.134;2023-05-29T01:19:20;8.30;;;2.67;;
12861;SDS011;6499;66.348;14.134;2023-05-29T01:21:53;11.20;;;2.83;;
12861;SDS011;6499;66.348;14.134;2023-05-29T01:24:25;10.37;;;2.63;;
12861;SDS011;6499;66.348;14.134;2023-05-29T01:26:54;7.03;;;2.53;;
12861;SDS011;6499;66.348;14.134;2023-05-29T01:29:22;9.37;;;2.73;;
12861;SDS011;6499;66.348;14.134;2023-05-29T01:31:50;9.60;;;2.83;;
12861;SDS011;6499;66.348;14.134;2023-05-29T01:34:16;13.70;;;2.97;;
12861;SDS011;6499;66.348;14.134;2023-05-29T01:36:43;8.73;;;2.50;;
12861;SDS011;6499;66.348;14.134;2023-05-29T01:39:11;8.80;;;2.37;;
12861;SDS011;6499;66.348;14.134;2023-05-29T01:41:38;11.43;;;2.90;;
12861;SDS011;6499;66.348;14.134;2023-05-29T01:44:07;11.63;;;2.87;;
12861;SDS011;6499;66.348;14.134;2023-05-29T01:46:35;11.00;;;2.77;;
12861;SDS011;6499;66.348;14.134;2023-05-29T01:49:02;10.93;;;3.00;;
12861;SDS011;6499;66.348;14.134;2023-05-29T01:51:28;8.53;;;2.00;;
12861;SDS011;6499;66.348;14.134;2023-05-29T01:53:57;11.23;;;2.30;;
12861;SDS011;6499;66.348;14.134;2023-05-29T01:56:23;10.10;;;2.60;;
12861;SDS011;6499;66.348;14.134;2023-05-29T01:58:51;7.77;;;2.53;;
12861;SDS011;6499;66.348;14.134;2023-05-29T02:01:20;8.77;;;2.57;;
12861;SDS011;6499;66.348;14.134;2023-05-29T02:03:47;7.27;;;2.00;;
12861;SDS011;6499;66.348;14.134;2023-05-29T02:06:13;8.77;;;2.03;;
12861;SDS011;6499;66.348;14.134;2023-05-29T02:08:40;11.33;;;2.83;;
12861;SDS011;6499;66.348;14.134;2023-05-29T02:11:07;6.97;;;2.13;;
12861;SDS011;6499;66.348;14.134;2023-05-29T02:13:33;11.20;;;2.50;;
12861;SDS011;6499;66.348;14.134;2023-05-29T02:16:00;8.50;;;2.37;;
12861;SDS011;6499;66.348;14.134;2023-05-29T02:18:28;6.83;;;2.40;;
12861;SDS011;6499;66.348;14.134;2023-05-29T02:20:54;12.23;;;2.93;;
12861;SDS011;6499;66.348;14.134;2023-05-29T02:23:21;6.57;;;2.20;;
12861;SDS011;6499;66.348;14.134;2023-05-29T02:25:47;7.30;;;2.37;;
12861;SDS011;6499;66.348;14.134;2023-05-29T02:28:14;8.83;;;2.60;;
12861;SDS011;6499;66.348;14.134;2023-05-29T02:30:41;9.43;;;2.50;;
12861;SDS011;6499;66.348;14.134;2023-05-29T02:33:07;11.90;;;2.83;;
12861;SDS011;6499;66.348;14.134;2023-05-29T02:35:35;12.53;;;2.67;;
12861;SDS011;6499;66.348;14.134;2023-05-29T02:38:01;9.90;;;2.57;;
12861;SDS011;6499;66.348;14.134;2023-05-29T02:40:28;10.17;;;2.67;;
12861;SDS011;6499;66.348;14.134;2023-05-29T02:42:54;7.60;;;3.03;;
12861;SDS011;6499;66.348;14.134;2023-05-29T02:45:21;9.90;;;2.73;;
12861;SDS011;6499;66.348;14.134;2023-05-29T02:47:48;10.77;;;2.60;;
12861;SDS011;6499;66.348;14.134;2023-05-29T02:50:14;11.07;;;2.80;;
12861;SDS011;6499;66.348;14.134;2023-05-29T02:52:42;8.43;;;2.53;;
12861;SDS011;6499;66.348;14.134;2023-05-29T02:55:09;6.17;;;3.00;;
12861;SDS011;6499;66.348;14.134;2023-05-29T02:57:35;7.57;;;2.27;;
12861;SDS011;6499;66.348;14.134;2023-05-29T03:00:02;8.17;;;2.30;;
12861;SDS011;6499;66.348;14.134;2023-05-29T03:02:31;10.10;;;2.67;;
12861;SDS011;6499;66.348;14.134;2023-05-29T03:04:57;8.93;;;2.63;;
12861;SDS011;6499;66.348;14.134;2023-05-29T03:07:25;7.10;;;2.30;;
12861;SDS011;6499;66.348;14.134;2023-05-29T03:09:53;8.53;;;2.13;;
12861;SDS011;6499;66.348;14.134;2023-05-29T03:12:20;11.37;;;2.90;;
12861;SDS011;6499;66.348;14.134;2023-05-29T03:14:47;10.77;;;2.90;;
12861;SDS011;6499;66.348;14.134;2023-05-29T03:17:13;6.23;;;2.00;;
12861;SDS011;6499;66.348;14.134;2023-05-29T03:19:40;10.37;;;2.63;;
12861;SDS011;6499;66.348;14.134;2023-05-29T03:22:06;5.10;;;2.60;;
12861;SDS011;6499;66.348;14.134;2023-05-29T03:24:33;8.90;;;2.93;;
12861;SDS011;6499;66.348;14.134;2023-05-29T03:27:02;8.83;;;3.03;;
12861;SDS011;6499;66.348;14.134;2023-05-29T03:29:30;8.67;;;2.60;;
12861;SDS011;6499;66.348;14.134;2023-05-29T03:31:56;9.77;;;3.13;;
12861;SDS011;6499;66.348;14.134;2023-05-29T03:34:23;10.30;;;2.30;;
12861;SDS011;6499;66.348;14.134;2023-05-29T03:36:50;12.40;;;3.00;;
12861;SDS011;6499;66.348;14.134;2023-05-29T03:39:18;9.50;;;3.07;;
12861;SDS011;6499;66.348;14.134;2023-05-29T03:41:44;9.63;;;2.20;;
12861;SDS011;6499;66.348;14.134;2023-05-29T03:44:15;9.87;;;2.60;;
12861;SDS011;6499;66.348;14.134;2023-05-29T03:46:42;8.80;;;2.37;;
12861;SDS011;6499;66.348;14.134;2023-05-29T03:49:08;6.83;;;2.00;;
12861;SDS011;6499;66.348;14.134;2023-05-29T03:51:35;6.17;;;2.13;;
12861;SDS011;6499;66.348;14.134;2023-05-29T03:54:01;7.17;;;2.13;;
12861;SDS011;6499;66.348;14.134;2023-05-29T03:56:28;7.73;;;2.37;;
12861;SDS011;6499;66.348;14.134;2023-05-29T03:58:55;6.17;;;1.57;;
12861;SDS011;6499;66.348;14.134;2023-05-29T04:01:23;4.83;;;1.90;;
12861;SDS011;6499;66.348;14.134;2023-05-29T04:03:49;6.10;;;2.03;;
12861;SDS011;6499;66.348;14.134;2023-05-29T04:06:16;5.33;;;1.70;;
12861;SDS011;6499;66.348;14.134;2023-05-29T04:08:43;10.57;;;2.17;;
12861;SDS011;6499;66.348;14.134;2023-05-29T04:11:09;4.90;;;1.50;;
12861;SDS011;6499;66.348;14.134;2023-05-29T04:13:37;6.90;;;1.93;;
12861;SDS011;6499;66.348;14.134;2023-05-29T04:16:04;4.67;;;1.90;;
12861;SDS011;6499;66.348;14.134;2023-05-29T04:18:32;5.17;;;1.60;;
12861;SDS011;6499;66.348;14.134;2023-05-29T04:20:59;4.00;;;1.47;;
12861;SDS011;6499;66.348;14.134;2023-05-29T04:23:26;3.40;;;1.73;;
12861;SDS011;6499;66.348;14.134;2023-05-29T04:25:52;5.07;;;1.80;;
12861;SDS011;6499;66.348;14.134;2023-05-29T04:28:19;7.03;;;1.70;;
12861;SDS011;6499;66.348;14.134;2023-05-29T04:30:46;2.80;;;1.47;;
12861;SDS011;6499;66.348;14.134;2023-05-29T04:33:13;3.83;;;1.40;;
12861;SDS011;6499;66.348;14.134;2023-05-29T04:35:41;4.77;;;1.57;;
12861;SDS011;6499;66.348;14.134;2023-05-29T04:38:08;5.97;;;2.20;;
12861;SDS011;6499;66.348;14.134;2023-05-29T04:40:35;4.53;;;1.70;;
12861;SDS011;6499;66.348;14.134;2023-05-29T04:43:02;6.93;;;2.10;;
12861;SDS011;6499;66.348;14.134;2023-05-29T04:45:30;7.83;;;1.60;;
12861;SDS011;6499;66.348;14.134;2023-05-29T04:47:56;6.70;;;1.83;;
12861;SDS011;6499;66.348;14.134;2023-05-29T04:50:23;6.47;;;2.00;;
12861;SDS011;6499;66.348;14.134;2023-05-29T04:52:52;9.53;;;1.90;;
12861;SDS011;6499;66.348;14.134;2023-05-29T04:55:19;5.63;;;1.73;;
12861;SDS011;6499;66.348;14.134;2023-05-29T04:57:45;10.20;;;2.90;;
12861;SDS011;6499;66.348;14.134;2023-05-29T05:00:12;9.30;;;2.10;;
12861;SDS011;6499;66.348;14.134;2023-05-29T05:02:40;8.80;;;2.30;;
12861;SDS011;6499;66.348;14.134;2023-05-29T05:05:07;6.63;;;2.00;;
12861;SDS011;6499;66.348;14.134;2023-05-29T05:07:37;7.37;;;2.20;;
12861;SDS011;6499;66.348;14.134;2023-05-29T05:10:06;9.03;;;2.50;;
12861;SDS011;6499;66.348;14.134;2023-05-29T05:12:32;11.63;;;2.37;;
12861;SDS011;6499;66.348;14.134;2023-05-29T05:14:59;10.50;;;2.57;;
12861;SDS011;6499;66.348;14.134;2023-05-29T05:17:26;7.17;;;2.23;;
12861;SDS011;6499;66.348;14.134;2023-05-29T05:19:52;5.80;;;2.10;;
12861;SDS011;6499;66.348;14.134;2023-05-29T05:22:19;4.87;;;2.20;;
12861;SDS011;6499;66.348;14.134;2023-05-29T05:24:46;9.17;;;2.50;;
12861;SDS011;6499;66.348;14.134;2023-05-29T05:27:14;5.10;;;1.93;;
12861;SDS011;6499;66.348;14.134;2023-05-29T05:29:40;6.67;;;2.03;;
12861;SDS011;6499;66.348;14.134;2023-05-29T05:32:07;7.00;;;2.40;;
12861;SDS011;6499;66.348;14.134;2023-05-29T05:34:33;7.10;;;2.20;;
12861;SDS011;6499;66.348;14.134;2023-05-29T05:37:00;5.30;;;1.90;;
12861;SDS011;6499;66.348;14.134;2023-05-29T05:39:27;4.47;;;1.53;;
12861;SDS011;6499;66.348;14.134;2023-05-29T05:41:54;4.77;;;1.87;;
12861;SDS011;6499;66.348;14.134;2023-05-29T05:44:23;8.60;;;1.80;;
12861;SDS011;6499;66.348;14.134;2023-05-29T05:46:49;4.13;;;1.50;;
12861;SDS011;6499;66.348;14.134;2023-05-29T05:49:17;3.27;;;1.40;;
12861;SDS011;6499;66.348;14.134;2023-05-29T05:51:43;7.33;;;1.87;;
12861;SDS011;6499;66.348;14.134;2023-05-29T05:54:10;3.77;;;1.33;;
12861;SDS011;6499;66.348;14.134;2023-05-29T05:56:37;4.70;;;1.47;;
12861;SDS011;6499;66.348;14.134;2023-05-29T05:59:04;4.03;;;1.50;;
12861;SDS011;6499;66.348;14.134;2023-05-29T06:01:32;3.87;;;1.33;;
12861;SDS011;6499;66.348;14.134;2023-05-29T06:03:59;5.57;;;1.77;;
12861;SDS011;6499;66.348;14.134;2023-05-29T06:06:25;4.17;;;1.27;;
12861;SDS011;6499;66.348;14.134;2023-05-29T06:08:52;5.70;;;1.70;;
12861;SDS011;6499;66.348;14.134;2023-05-29T06:11:19;2.73;;;1.70;;
12861;SDS011;6499;66.348;14.134;2023-05-29T06:13:45;2.53;;;1.23;;
12861;SDS011;6499;66.348;14.134;2023-05-29T06:16:12;2.60;;;1.00;;
12861;SDS011;6499;66.348;14.134;2023-05-29T06:18:40;2.10;;;1.00;;
12861;SDS011;6499;66.348;14.134;2023-05-29T06:21:07;2.50;;;1.43;;
12861;SDS011;6499;66.348;14.134;2023-05-29T06:23:34;2.90;;;1.30;;
12861;SDS011;6499;66.348;14.134;2023-05-29T06:26:01;3.43;;;1.17;;
12861;SDS011;6499;66.348;14.134;2023-05-29T06:28:28;3.73;;;1.73;;
12861;SDS011;6499;66.348;14.134;2023-05-29T06:30:55;2.57;;;1.10;;
12861;SDS011;6499;66.348;14.134;2023-05-29T06:33:21;3.27;;;1.90;;
12861;SDS011;6499;66.348;14.134;2023-05-29T06:35:50;2.53;;;1.20;;
12861;SDS011;6499;66.348;14.134;2023-05-29T06:38:26;3.60;;;1.20;;
12861;SDS011;6499;66.348;14.134;2023-05-29T06:40:52;4.63;;;1.50;;
12861;SDS011;6499;66.348;14.134;2023-05-29T06:43:19;2.33;;;1.20;;
12861;SDS011;6499;66.348;14.134;2023-05-29T06:45:46;3.50;;;1.13;;
12861;SDS011;6499;66.348;14.134;2023-05-29T06:48:12;4.60;;;1.00;;
12861;SDS011;6499;66.348;14.134;2023-05-29T06:50:39;4.53;;;1.17;;
12861;SDS011;6499;66.348;14.134;2023-05-29T06:53:07;2.87;;;1.10;;
12861;SDS011;6499;66.348;14.134;2023-05-29T06:55:33;1.73;;;1.10;;
12861;SDS011;6499;66.348;14.134;2023-05-29T06:58:00;2.20;;;0.93;;
12861;SDS011;6499;66.348;14.134;2023-05-29T07:00:32;3.47;;;1.10;;
12861;SDS011;6499;66.348;14.134;2023-05-29T07:02:59;2.60;;;1.07;;
12861;SDS011;6499;66.348;14.134;2023-05-29T07:05:26;2.90;;;0.90;;
12861;SDS011;6499;66.348;14.134;2023-05-29T07:07:52;2.53;;;0.93;;
12861;SDS011;6499;66.348;14.134;2023-05-29T07:10:20;3.33;;;0.90;;
12861;SDS011;6499;66.348;14.134;2023-05-29T07:12:47;1.90;;;1.17;;
12861;SDS011;6499;66.348;14.134;2023-05-29T07:15:26;0.90;;;0.60;;
12861;SDS011;6499;66.348;14.134;2023-05-29T07:17:53;1.60;;;0.70;;
12861;SDS011;6499;66.348;14.134;2023-05-29T07:20:19;1.13;;;0.77;;
12861;SDS011;6499;66.348;14.134;2023-05-29T07:22:46;1.37;;;0.70;;
12861;SDS011;6499;66.348;14.134;2023-05-29T07:25:22;2.07;;;0.90;;
12861;SDS011;6499;66.348;14.134;2023-05-29T07:27:49;0.97;;;0.60;;
12861;SDS011;6499;66.348;14.134;2023-05-29T07:30:21;1.70;;;0.80;;
12861;SDS011;6499;66.348;14.134;2023-05-29T07:32:48;1.03;;;0.80;;
12861;SDS011;6499;66.348;14.134;2023-05-29T07:35:14;1.07;;;0.60;;
12861;SDS011;6499;66.348;14.134;2023-05-29T07:37:41;1.07;;;0.50;;
12861;SDS011;6499;66.348;14.134;2023-05-29T07:40:08;1.30;;;0.60;;
12861;SDS011;6499;66.348;14.134;2023-05-29T07:42:36;1.93;;;0.80;;
12861;SDS011;6499;66.348;14.134;2023-05-29T07:45:03;1.13;;;0.60;;
12861;SDS011;6499;66.348;14.134;2023-05-29T07:47:30;2.77;;;0.67;;
12861;SDS011;6499;66.348;14.134;2023-05-29T07:49:56;1.30;;;0.83;;
12861;SDS011;6499;66.348;14.134;2023-05-29T07:52:23;2.20;;;0.60;;
12861;SDS011;6499;66.348;14.134;2023-05-29T07:54:50;1.67;;;0.70;;
12861;SDS011;6499;66.348;14.134;2023-05-29T07:57:16;0.87;;;0.50;;
12861;SDS011;6499;66.348;14.134;2023-05-29T07:59:44;1.27;;;0.70;;
12861;SDS011;6499;66.348;14.134;2023-05-29T08:02:14;1.27;;;0.80;;
12861;SDS011;6499;66.348;14.134;2023-05-29T08:04:41;1.00;;;0.70;;
12861;SDS011;6499;66.348;14.134;2023-05-29T08:07:08;1.23;;;0.70;;
12861;SDS011;6499;66.348;14.134;2023-05-29T08:09:35;1.97;;;0.67;;
12861;SDS011;6499;66.348;14.134;2023-05-29T08:12:01;1.53;;;0.70;;
12861;SDS011;6499;66.348;14.134;2023-05-29T08:14:34;1.93;;;0.60;;
12861;SDS011;6499;66.348;14.134;2023-05-29T08:28:53;0.77;;;0.53;;
12861;SDS011;6499;66.348;14.134;2023-05-29T08:34:27;0.80;;;0.50;;
12861;SDS011;6499;66.348;14.134;2023-05-29T08:42:46;2.70;;;0.80;;
12861;SDS011;6499;66.348;14.134;2023-05-29T08:43:22;0.60;;;0.50;;
12861;SDS011;6499;66.348;14.134;2023-05-29T08:51:40;0.70;;;0.60;;
12861;SDS011;6499;66.348;14.134;2023-05-29T08:54:15;0.73;;;0.50;;
12861;SDS011;6499;66.348;14.134;2023-05-29T08:56:45;0.60;;;0.40;;
12861;SDS011;6499;66.348;14.134;2023-05-29T08:59:16;0.63;;;0.63;;
12861;SDS011;6499;66.348;14.134;2023-05-29T09:02:49;0.30;;;0.30;;
12861;SDS011;6499;66.348;14.134;2023-05-29T09:07:41;0.47;;;0.40;;
12861;SDS011;6499;66.348;14.134;2023-05-29T09:10:18;0.30;;;0.30;;
12861;SDS011;6499;66.348;14.134;2023-05-29T09:12:50;0.60;;;0.50;;
12861;SDS011;6499;66.348;14.134;2023-05-29T09:15:19;0.87;;;0.50;;
12861;SDS011;6499;66.348;14.134;2023-05-29T09:18:00;0.40;;;0.40;;
12861;SDS011;6499;66.348;14.134;2023-05-29T09:20:28;0.50;;;0.50;;
12861;SDS011;6499;66.348;14.134;2023-05-29T09:37:24;0.63;;;0.30;;
12861;SDS011;6499;66.348;14.134;2023-05-29T09:39:56;0.20;;;0.20;;
12861;SDS011;6499;66.348;14.134;2023-05-29T09:42:38;0.20;;;0.20;;
12861;SDS011;6499;66.348;14.134;2023-05-29T09:45:34;0.23;;;0.20;;
12861;SDS011;6499;66.348;14.134;2023-05-29T09:49:18;0.20;;;0.20;;
12861;SDS011;6499;66.348;14.134;2023-05-29T09:51:29;0.80;;;0.80;;
12861;SDS011;6499;66.348;14.134;2023-05-29T09:53:58;0.60;;;0.57;;
12861;SDS011;6499;66.348;14.134;2023-05-29T09:56:28;0.40;;;0.40;;
12861;SDS011;6499;66.348;14.134;2023-05-29T09:59:00;0.40;;;0.40;;
12861;SDS011;6499;66.348;14.134;2023-05-29T10:05:47;0.30;;;0.30;;
12861;SDS011;6499;66.348;14.134;2023-05-29T10:13:14;0.40;;;0.40;;
12861;SDS011;6499;66.348;14.134;2023-05-29T10:15:41;0.30;;;0.30;;
12861;SDS011;6499;66.348;14.134;2023-05-29T10:18:19;0.40;;;0.40;;
12861;SDS011;6499;66.348;14.134;2023-05-29T10:20:50;0.77;;;0.60;;
12861;SDS011;6499;66.348;14.134;2023-05-29T10:29:44;1.00;;;0.80;;
12861;SDS011;6499;66.348;14.134;2023-05-29T10:32:43;0.50;;;0.50;;
12861;SDS011;6499;66.348;14.134;2023-05-29T10:38:27;0.37;;;0.30;;
12861;SDS011;6499;66.348;14.134;2023-05-29T10:41:01;0.23;;;0.20;;
12861;SDS011;6499;66.348;14.134;2023-05-29T10:43:45;0.73;;;0.30;;
12861;SDS011;6499;66.348;14.134;2023-05-29T10:49:33;0.40;;;0.20;;
12861;SDS011;6499;66.348;14.134;2023-05-29T10:52:21;0.20;;;0.20;;
12861;SDS011;6499;66.348;14.134;2023-05-29T10:55:02;0.30;;;0.30;;
12861;SDS011;6499;66.348;14.134;2023-05-29T10:57:31;0.30;;;0.30;;
12861;SDS011;6499;66.348;14.134;2023-05-29T11:00:02;0.20;;;0.20;;
12861;SDS011;6499;66.348;14.134;2023-05-29T11:05:37;0.30;;;0.30;;
12861;SDS011;6499;66.348;14.134;2023-05-29T11:08:24;1.33;;;0.30;;
12861;SDS011;6499;66.348;14.134;2023-05-29T11:11:28;0.30;;;0.30;;
12861;SDS011;6499;66.348;14.134;2023-05-29T11:25:58;0.20;;;0.20;;
12861;SDS011;6499;66.348;14.134;2023-05-29T11:28:37;0.20;;;0.20;;
12861;SDS011;6499;66.348;14.134;2023-05-29T11:40:34;0.40;;;0.40;;
12861;SDS011;6499;66.348;14.134;2023-05-29T11:49:26;0.47;;;0.47;;
12861;SDS011;6499;66.348;14.134;2023-05-29T11:52:27;0.40;;;0.40;;
12861;SDS011;6499;66.348;14.134;2023-05-29T11:55:07;0.40;;;0.40;;
12861;SDS011;6499;66.348;14.134;2023-05-29T11:57:55;0.47;;;0.47;;
12861;SDS011;6499;66.348;14.134;2023-05-29T12:12:28;0.53;;;0.47;;
12861;SDS011;6499;66.348;14.134;2023-05-29T12:24:33;0.33;;;0.33;;
12861;SDS011;6499;66.348;14.134;2023-05-29T12:27:29;1.43;;;0.60;;
12861;SDS011;6499;66.348;14.134;2023-05-29T12:30:15;0.53;;;0.50;;
12861;SDS011;6499;66.348;14.134;2023-05-29T12:32:48;1.03;;;0.60;;
12861;SDS011;6499;66.348;14.134;2023-05-29T12:35:24;0.83;;;0.60;;
12861;SDS011;6499;66.348;14.134;2023-05-29T12:41:07;0.30;;;0.30;;
12861;SDS011;6499;66.348;14.134;2023-05-29T12:44:04;0.30;;;0.30;;
12861;SDS011;6499;66.348;14.134;2023-05-29T12:58:17;0.30;;;0.30;;
12861;SDS011;6499;66.348;14.134;2023-05-29T13:01:01;0.30;;;0.30;;
12861;SDS011;6499;66.348;14.134;2023-05-29T13:07:13;0.50;;;0.30;;
12861;SDS011;6499;66.348;14.134;2023-05-29T13:22:33;0.27;;;0.27;;
12861;SDS011;6499;66.348;14.134;2023-05-29T13:25:04;0.20;;;0.20;;
12861;SDS011;6499;66.348;14.134;2023-05-29T13:31:12;0.30;;;0.30;;
12861;SDS011;6499;66.348;14.134;2023-05-29T13:33:43;0.30;;;0.30;;
12861;SDS011;6499;66.348;14.134;2023-05-29T13:36:30;0.30;;;0.30;;
12861;SDS011;6499;66.348;14.134;2023-05-29T13:45:26;0.50;;;0.50;;
12861;SDS011;6499;66.348;14.134;2023-05-29T13:53:52;0.60;;;0.50;;
12861;SDS011;6499;66.348;14.134;2023-05-29T13:56:21;0.67;;;0.53;;
12861;SDS011;6499;66.348;14.134;2023-05-29T13:58:53;0.47;;;0.47;;
12861;SDS011;6499;66.348;14.134;2023-05-29T14:29:24;0.50;;;0.50;;
12861;SDS011;6499;66.348;14.134;2023-05-29T14:38:40;0.53;;;0.53;;
12861;SDS011;6499;66.348;14.134;2023-05-29T14:42:07;0.50;;;0.50;;
12861;SDS011;6499;66.348;14.134;2023-05-29T14:55:28;0.60;;;0.60;;
12861;SDS011;6499;66.348;14.134;2023-05-29T14:58:02;0.60;;;0.60;;
12861;SDS011;6499;66.348;14.134;2023-05-29T15:00:42;0.80;;;0.80;;
12861;SDS011;6499;66.348;14.134;2023-05-29T15:03:09;0.70;;;0.70;;
12861;SDS011;6499;66.348;14.134;2023-05-29T15:05:36;1.90;;;1.20;;
12861;SDS011;6499;66.348;14.134;2023-05-29T15:08:03;0.67;;;0.63;;
12861;SDS011;6499;66.348;14.134;2023-05-29T15:10:35;0.80;;;0.70;;
12861;SDS011;6499;66.348;14.134;2023-05-29T15:13:08;0.70;;;0.60;;
12861;SDS011;6499;66.348;14.134;2023-05-29T15:15:39;0.97;;;0.60;;
12861;SDS011;6499;66.348;14.134;2023-05-29T15:18:16;1.00;;;0.70;;
12861;SDS011;6499;66.348;14.134;2023-05-29T15:33:15;0.50;;;0.40;;
12861;SDS011;6499;66.348;14.134;2023-05-29T15:35:41;0.30;;;0.30;;
12861;SDS011;6499;66.348;14.134;2023-05-29T15:38:08;0.40;;;0.40;;
12861;SDS011;6499;66.348;14.134;2023-05-29T15:40:35;0.40;;;0.40;;
12861;SDS011;6499;66.348;14.134;2023-05-29T15:43:01;0.37;;;0.37;;
12861;SDS011;6499;66.348;14.134;2023-05-29T15:45:28;0.30;;;0.30;;
12861;SDS011;6499;66.348;14.134;2023-05-29T15:47:54;0.40;;;0.40;;
12861;SDS011;6499;66.348;14.134;2023-05-29T15:50:22;1.37;;;0.50;;
12861;SDS011;6499;66.348;14.134;2023-05-29T15:52:49;0.70;;;0.50;;
12861;SDS011;6499;66.348;14.134;2023-05-29T15:55:15;0.97;;;0.60;;
12861;SDS011;6499;66.348;14.134;2023-05-29T15:57:42;0.60;;;0.47;;
12861;SDS011;6499;66.348;14.134;2023-05-29T16:00:10;0.83;;;0.50;;
12861;SDS011;6499;66.348;14.134;2023-05-29T16:02:38;1.53;;;0.60;;
12861;SDS011;6499;66.348;14.134;2023-05-29T16:05:04;0.97;;;0.60;;
12861;SDS011;6499;66.348;14.134;2023-05-29T16:07:32;1.20;;;0.60;;
12861;SDS011;6499;66.348;14.134;2023-05-29T16:09:59;1.33;;;0.73;;
12861;SDS011;6499;66.348;14.134;2023-05-29T16:12:26;1.67;;;0.63;;
12861;SDS011;6499;66.348;14.134;2023-05-29T16:14:54;1.17;;;0.67;;
12861;SDS011;6499;66.348;14.134;2023-05-29T16:17:20;1.40;;;0.63;;
12861;SDS011;6499;66.348;14.134;2023-05-29T16:19:47;1.33;;;0.70;;
12861;SDS011;6499;66.348;14.134;2023-05-29T16:22:14;0.93;;;0.57;;
12861;SDS011;6499;66.348;14.134;2023-05-29T16:24:42;0.57;;;0.50;;
12861;SDS011;6499;66.348;14.134;2023-05-29T16:27:08;0.60;;;0.60;;
12861;SDS011;6499;66.348;14.134;2023-05-29T16:29:35;2.20;;;0.90;;
12861;SDS011;6499;66.348;14.134;2023-05-29T16:32:01;2.20;;;1.03;;
12861;SDS011;6499;66.348;14.134;2023-05-29T16:34:28;2.07;;;0.80;;
12861;SDS011;6499;66.348;14.134;2023-05-29T16:36:55;2.00;;;0.87;;
12861;SDS011;6499;66.348;14.134;2023-05-29T16:39:21;0.80;;;0.60;;
12861;SDS011;6499;66.348;14.134;2023-05-29T16:41:52;1.23;;;0.77;;
12861;SDS011;6499;66.348;14.134;2023-05-29T16:44:18;1.13;;;0.60;;
12861;SDS011;6499;66.348;14.134;2023-05-29T16:46:45;1.47;;;0.77;;
12861;SDS011;6499;66.348;14.134;2023-05-29T16:49:12;1.23;;;0.57;;
12861;SDS011;6499;66.348;14.134;2023-05-29T16:51:38;1.63;;;0.60;;
12861;SDS011;6499;66.348;14.134;2023-05-29T16:54:05;1.83;;;0.63;;
12861;SDS011;6499;66.348;14.134;2023-05-29T16:56:31;1.17;;;0.50;;
12861;SDS011;6499;66.348;14.134;2023-05-29T16:58:59;1.40;;;0.50;;
12861;SDS011;6499;66.348;14.134;2023-05-29T17:01:26;1.80;;;0.50;;
12861;SDS011;6499;66.348;14.134;2023-05-29T17:03:52;0.60;;;0.50;;
12861;SDS011;6499;66.348;14.134;2023-05-29T17:06:19;1.47;;;0.70;;
12861;SDS011;6499;66.348;14.134;2023-05-29T17:08:45;1.57;;;0.57;;
12861;SDS011;6499;66.348;14.134;2023-05-29T17:11:12;2.17;;;0.50;;
12861;SDS011;6499;66.348;14.134;2023-05-29T17:13:38;1.77;;;0.67;;
12861;SDS011;6499;66.348;14.134;2023-05-29T17:16:06;2.53;;;0.50;;
12861;SDS011;6499;66.348;14.134;2023-05-29T17:18:33;1.27;;;0.53;;
12861;SDS011;6499;66.348;14.134;2023-05-29T17:21:00;0.73;;;0.50;;
12861;SDS011;6499;66.348;14.134;2023-05-29T17:23:26;1.23;;;0.40;;
12861;SDS011;6499;66.348;14.134;2023-05-29T17:25:53;0.87;;;0.50;;
12861;SDS011;6499;66.348;14.134;2023-05-29T17:28:20;1.43;;;0.57;;
12861;SDS011;6499;66.348;14.134;2023-05-29T17:30:46;0.70;;;0.30;;
12861;SDS011;6499;66.348;14.134;2023-05-29T17:33:14;0.70;;;0.40;;
12861;SDS011;6499;66.348;14.134;2023-05-29T17:35:41;0.43;;;0.30;;
12861;SDS011;6499;66.348;14.134;2023-05-29T17:38:08;1.40;;;0.40;;
12861;SDS011;6499;66.348;14.134;2023-05-29T17:40:35;2.87;;;0.50;;
12861;SDS011;6499;66.348;14.134;2023-05-29T17:43:01;0.33;;;0.33;;
12861;SDS011;6499;66.348;14.134;2023-05-29T17:45:29;0.90;;;0.40;;
12861;SDS011;6499;66.348;14.134;2023-05-29T17:47:55;0.97;;;0.40;;
12861;SDS011;6499;66.348;14.134;2023-05-29T17:50:23;0.90;;;0.53;;
12861;SDS011;6499;66.348;14.134;2023-05-29T17:53:03;0.93;;;0.40;;
12861;SDS011;6499;66.348;14.134;2023-05-29T17:55:30;0.50;;;0.50;;
12861;SDS011;6499;66.348;14.134;2023-05-29T18:06:36;0.50;;;0.30;;
12861;SDS011;6499;66.348;14.134;2023-05-29T18:09:02;0.40;;;0.40;;
12861;SDS011;6499;66.348;14.134;2023-05-29T18:11:29;0.50;;;0.40;;
12861;SDS011;6499;66.348;14.134;2023-05-29T18:13:56;0.67;;;0.50;;
12861;SDS011;6499;66.348;14.134;2023-05-29T18:16:22;0.60;;;0.40;;
12861;SDS011;6499;66.348;14.134;2023-05-29T18:18:49;0.30;;;0.30;;
12861;SDS011;6499;66.348;14.134;2023-05-29T18:21:16;1.47;;;0.57;;
12861;SDS011;6499;66.348;14.134;2023-05-29T18:23:44;1.70;;;0.50;;
12861;SDS011;6499;66.348;14.134;2023-05-29T18:26:12;0.60;;;0.57;;
12861;SDS011;6499;66.348;14.134;2023-05-29T18:28:39;1.30;;;0.50;;
12861;SDS011;6499;66.348;14.134;2023-05-29T18:31:06;0.73;;;0.27;;
12861;SDS011;6499;66.348;14.134;2023-05-29T18:33:32;0.87;;;0.33;;
12861;SDS011;6499;66.348;14.134;2023-05-29T18:35:59;0.97;;;0.50;;
12861;SDS011;6499;66.348;14.134;2023-05-29T18:38:26;1.07;;;0.53;;
12861;SDS011;6499;66.348;14.134;2023-05-29T18:40:54;1.50;;;0.40;;
12861;SDS011;6499;66.348;14.134;2023-05-29T18:43:20;1.10;;;0.53;;
12861;SDS011;6499;66.348;14.134;2023-05-29T18:45:47;4.00;;;1.60;;
12861;SDS011;6499;66.348;14.134;2023-05-29T18:48:13;0.80;;;0.47;;